sensor_id;sensor_type;location;lat;lon;timestamp;pressure;altitude;pressure_sealevel;temperature;humidity
46007;BME280;31738;50.188;8.524;2022-09-06T00:00:07;98916.66;;;20.49;55.94
46007;BME280;31738;50.188;8.524;2022-09-06T00:02:38;98909.00;;;20.42;55.97
46007;BME280;31738;50.188;8.524;2022-09-06T00:05:04;98906.28;;;20.42;56.33
46007;BME280;31738;50.188;8.524;2022-09-06T00:07:30;98906.94;;;20.39;56.33
46007;BME280;31738;50.188;8.524;2022-09-06T00:09:56;98905.38;;;20.38;56.65
46007;BME280;31738;50.188;8.524;2022-09-06T00:12:22;98899.91;;;20.38;56.56
46007;BME280;31738;50.188;8.524;2022-09-06T00:14:48;98899.91;;;20.38;57.05
46007;BME280;31738;50.188;8.524;2022-09-06T00:17:14;98896.72;;;20.36;57.25
46007;BME280;31738;50.188;8.524;2022-09-06T00:19:40;98897.84;;;20.35;57.18
46007;BME280;31738;50.188;8.524;2022-09-06T00:22:05;98897.38;;;20.33;57.19
46007;BME280;31738;50.188;8.524;2022-09-06T00:24:30;98896.94;;;20.31;57.71
46007;BME280;31738;50.188;8.524;2022-09-06T00:26:56;98889.44;;;20.28;57.52
46007;BME280;31738;50.188;8.524;2022-09-06T00:29:21;98887.81;;;20.27;57.69
46007;BME280;31738;50.188;8.524;2022-09-06T00:31:47;98877.72;;;20.27;58.02
46007;BME280;31738;50.188;8.524;2022-09-06T00:34:12;98888.28;;;20.29;58.17
46007;BME280;31738;50.188;8.524;2022-09-06T00:36:38;98880.94;;;20.29;57.94
46007;BME280;31738;50.188;8.524;2022-09-06T00:39:03;98884.09;;;20.31;58.00
46007;BME280;31738;50.188;8.524;2022-09-06T00:41:29;98878.78;;;20.35;57.98
46007;BME280;31738;50.188;8.524;2022-09-06T00:43:55;98878.91;;;20.39;57.79
46007;BME280;31738;50.188;8.524;2022-09-06T00:46:23;98872.25;;;20.48;57.41
46007;BME280;31738;50.188;8.524;2022-09-06T00:48:56;98873.97;;;20.53;57.15
46007;BME280;31738;50.188;8.524;2022-09-06T00:51:24;98881.50;;;20.56;57.24
46007;BME280;31738;50.188;8.524;2022-09-06T00:53:52;98867.31;;;20.62;57.24
46007;BME280;31738;50.188;8.524;2022-09-06T00:56:18;98876.09;;;20.68;57.02
46007;BME280;31738;50.188;8.524;2022-09-06T00:58:44;98881.97;;;20.70;57.00
46007;BME280;31738;50.188;8.524;2022-09-06T01:01:11;98878.00;;;20.67;57.20
46007;BME280;31738;50.188;8.524;2022-09-06T01:03:37;98879.81;;;20.63;57.51
46007;BME280;31738;50.188;8.524;2022-09-06T01:06:34;98882.75;;;20.58;57.56
46007;BME280;31738;50.188;8.524;2022-09-06T01:09:17;98894.19;;;20.52;58.10
46007;BME280;31738;50.188;8.524;2022-09-06T01:17:39;98885.44;;;20.46;58.47
46007;BME280;31738;50.188;8.524;2022-09-06T01:20:31;98889.50;;;20.40;59.04
46007;BME280;31738;50.188;8.524;2022-09-06T01:23:18;98890.06;;;20.46;58.88
46007;BME280;31738;50.188;8.524;2022-09-06T01:28:47;98889.16;;;20.42;58.99
46007;BME280;31738;50.188;8.524;2022-09-06T01:31:22;98888.47;;;20.45;59.08
46007;BME280;31738;50.188;8.524;2022-09-06T01:36:41;98882.09;;;20.41;59.50
46007;BME280;31738;50.188;8.524;2022-09-06T01:39:16;98881.09;;;20.45;59.38
46007;BME280;31738;50.188;8.524;2022-09-06T01:41:46;98883.03;;;20.45;59.79
46007;BME280;31738;50.188;8.524;2022-09-06T01:44:11;98882.69;;;20.46;59.58
46007;BME280;31738;50.188;8.524;2022-09-06T01:47:01;98874.25;;;20.39;59.47
46007;BME280;31738;50.188;8.524;2022-09-06T01:52:22;98867.34;;;20.42;59.72
46007;BME280;31738;50.188;8.524;2022-09-06T02:00:18;98879.16;;;20.46;60.05
46007;BME280;31738;50.188;8.524;2022-09-06T02:05:33;98988.31;;;20.49;60.33
46007;BME280;31738;50.188;8.524;2022-09-06T02:08:05;98982.47;;;20.59;59.54
46007;BME280;31738;50.188;8.524;2022-09-06T02:10:37;98971.28;;;20.73;58.99
46007;BME280;31738;50.188;8.524;2022-09-06T02:13:06;98957.84;;;20.88;58.48
46007;BME280;31738;50.188;8.524;2022-09-06T02:15:36;98972.03;;;21.02;57.45
46007;BME280;31738;50.188;8.524;2022-09-06T02:18:14;98973.41;;;21.08;57.27
46007;BME280;31738;50.188;8.524;2022-09-06T02:20:45;98969.81;;;21.16;56.64
46007;BME280;31738;50.188;8.524;2022-09-06T02:23:14;98953.66;;;21.23;57.11
46007;BME280;31738;50.188;8.524;2022-09-06T02:25:44;98953.78;;;21.27;58.18
46007;BME280;31738;50.188;8.524;2022-09-06T02:28:11;98935.16;;;21.29;58.68
46007;BME280;31738;50.188;8.524;2022-09-06T02:30:43;98930.13;;;21.31;59.42
46007;BME280;31738;50.188;8.524;2022-09-06T02:33:15;98921.59;;;21.32;59.50
46007;BME280;31738;50.188;8.524;2022-09-06T02:35:47;98916.63;;;21.34;59.84
46007;BME280;31738;50.188;8.524;2022-09-06T02:38:14;98909.72;;;21.37;59.42
46007;BME280;31738;50.188;8.524;2022-09-06T02:40:40;98900.50;;;21.41;59.90
46007;BME280;31738;50.188;8.524;2022-09-06T02:43:06;98892.06;;;21.46;59.72
46007;BME280;31738;50.188;8.524;2022-09-06T02:45:33;98879.69;;;21.49;59.76
46007;BME280;31738;50.188;8.524;2022-09-06T02:47:58;98891.84;;;21.51;59.33
46007;BME280;31738;50.188;8.524;2022-09-06T02:50:23;98883.31;;;21.53;59.42
46007;BME280;31738;50.188;8.524;2022-09-06T02:53:06;98878.19;;;21.51;59.08
46007;BME280;31738;50.188;8.524;2022-09-06T02:55:33;98880.59;;;21.53;59.57
46007;BME280;31738;50.188;8.524;2022-09-06T02:57:58;98868.97;;;21.56;59.47
46007;BME280;31738;50.188;8.524;2022-09-06T03:00:24;98873.75;;;21.59;59.92
46007;BME280;31738;50.188;8.524;2022-09-06T03:02:50;98881.59;;;21.60;59.62
46007;BME280;31738;50.188;8.524;2022-09-06T03:05:16;98873.88;;;21.62;59.55
46007;BME280;31738;50.188;8.524;2022-09-06T03:07:41;98865.34;;;21.64;59.81
46007;BME280;31738;50.188;8.524;2022-09-06T03:10:07;98863.84;;;21.66;59.58
46007;BME280;31738;50.188;8.524;2022-09-06T03:12:32;98853.38;;;21.68;60.15
46007;BME280;31738;50.188;8.524;2022-09-06T03:14:58;98854.63;;;21.71;60.22
46007;BME280;31738;50.188;8.524;2022-09-06T03:17:23;98847.59;;;21.70;61.16
46007;BME280;31738;50.188;8.524;2022-09-06T03:19:49;98832.22;;;21.65;61.87
46007;BME280;31738;50.188;8.524;2022-09-06T03:22:14;98819.94;;;21.59;63.84
46007;BME280;31738;50.188;8.524;2022-09-06T03:24:40;98814.72;;;21.54;64.39
46007;BME280;31738;50.188;8.524;2022-09-06T03:27:05;98795.41;;;21.47;65.54
46007;BME280;31738;50.188;8.524;2022-09-06T03:29:31;98790.50;;;21.41;66.70
46007;BME280;31738;50.188;8.524;2022-09-06T03:31:56;98783.22;;;21.33;67.77
46007;BME280;31738;50.188;8.524;2022-09-06T03:34:22;98786.88;;;21.25;69.39
46007;BME280;31738;50.188;8.524;2022-09-06T03:36:47;98777.22;;;21.15;69.61
46007;BME280;31738;50.188;8.524;2022-09-06T03:39:13;98756.75;;;21.09;70.09
46007;BME280;31738;50.188;8.524;2022-09-06T03:41:38;98746.41;;;21.03;70.05
46007;BME280;31738;50.188;8.524;2022-09-06T03:44:04;98726.31;;;20.95;71.11
46007;BME280;31738;50.188;8.524;2022-09-06T03:46:29;98714.44;;;20.91;71.75
46007;BME280;31738;50.188;8.524;2022-09-06T03:48:58;98704.22;;;20.88;71.83
46007;BME280;31738;50.188;8.524;2022-09-06T03:51:24;98707.19;;;20.83;72.29
46007;BME280;31738;50.188;8.524;2022-09-06T03:53:49;98694.19;;;20.80;72.45
46007;BME280;31738;50.188;8.524;2022-09-06T03:56:15;98682.41;;;20.76;72.51
46007;BME280;31738;50.188;8.524;2022-09-06T03:58:40;98674.44;;;20.71;72.78
46007;BME280;31738;50.188;8.524;2022-09-06T04:01:08;98676.59;;;20.66;73.63
46007;BME280;31738;50.188;8.524;2022-09-06T04:03:34;98675.59;;;20.58;74.62
46007;BME280;31738;50.188;8.524;2022-09-06T04:06:00;98662.84;;;20.50;74.91
46007;BME280;31738;50.188;8.524;2022-09-06T04:08:26;98652.41;;;20.40;75.28
46007;BME280;31738;50.188;8.524;2022-09-06T04:10:53;98656.91;;;20.36;74.77
46007;BME280;31738;50.188;8.524;2022-09-06T04:13:20;98656.50;;;20.34;75.41
46007;BME280;31738;50.188;8.524;2022-09-06T04:15:46;98658.28;;;20.30;75.27
46007;BME280;31738;50.188;8.524;2022-09-06T04:18:12;98710.72;;;20.27;75.63
46007;BME280;31738;50.188;8.524;2022-09-06T04:20:38;98714.13;;;20.24;75.88
46007;BME280;31738;50.188;8.524;2022-09-06T04:23:03;98719.09;;;20.22;75.60
46007;BME280;31738;50.188;8.524;2022-09-06T04:25:29;98729.31;;;20.25;75.43
46007;BME280;31738;50.188;8.524;2022-09-06T04:27:54;98729.78;;;20.27;75.06
46007;BME280;31738;50.188;8.524;2022-09-06T04:30:20;98730.94;;;20.26;75.18
46007;BME280;31738;50.188;8.524;2022-09-06T04:32:45;98731.28;;;20.24;75.09
46007;BME280;31738;50.188;8.524;2022-09-06T04:35:11;98729.66;;;20.23;74.84
46007;BME280;31738;50.188;8.524;2022-09-06T04:37:36;98731.13;;;20.21;74.90
46007;BME280;31738;50.188;8.524;2022-09-06T04:40:02;98741.13;;;20.17;74.88
46007;BME280;31738;50.188;8.524;2022-09-06T04:42:27;98745.94;;;20.11;75.31
46007;BME280;31738;50.188;8.524;2022-09-06T04:44:53;98750.81;;;20.06;75.55
46007;BME280;31738;50.188;8.524;2022-09-06T04:47:18;98759.19;;;20.01;75.66
46007;BME280;31738;50.188;8.524;2022-09-06T04:49:44;98752.81;;;19.97;76.11
46007;BME280;31738;50.188;8.524;2022-09-06T04:52:10;98750.28;;;19.92;76.49
46007;BME280;31738;50.188;8.524;2022-09-06T04:54:37;98760.25;;;19.88;76.00
46007;BME280;31738;50.188;8.524;2022-09-06T04:57:03;98771.81;;;19.85;75.96
46007;BME280;31738;50.188;8.524;2022-09-06T04:59:28;98777.94;;;19.82;75.49
46007;BME280;31738;50.188;8.524;2022-09-06T05:01:54;98775.06;;;19.78;75.26
46007;BME280;31738;50.188;8.524;2022-09-06T05:04:19;98772.88;;;19.72;75.24
46007;BME280;31738;50.188;8.524;2022-09-06T05:06:45;98776.13;;;19.65;75.30
46007;BME280;31738;50.188;8.524;2022-09-06T05:09:11;98771.22;;;19.59;75.88
46007;BME280;31738;50.188;8.524;2022-09-06T05:11:36;98781.97;;;19.55;76.00
46007;BME280;31738;50.188;8.524;2022-09-06T05:14:02;98773.66;;;19.52;75.91
46007;BME280;31738;50.188;8.524;2022-09-06T05:16:27;98776.59;;;19.47;76.73
46007;BME280;31738;50.188;8.524;2022-09-06T05:18:53;98782.66;;;19.44;76.37
46007;BME280;31738;50.188;8.524;2022-09-06T05:21:18;98776.78;;;19.42;76.55
46007;BME280;31738;50.188;8.524;2022-09-06T05:23:44;98777.88;;;19.41;77.07
46007;BME280;31738;50.188;8.524;2022-09-06T05:26:09;98777.75;;;19.37;76.64
46007;BME280;31738;50.188;8.524;2022-09-06T05:28:35;98780.34;;;19.34;76.96
46007;BME280;31738;50.188;8.524;2022-09-06T05:31:27;98772.06;;;19.22;77.17
46007;BME280;31738;50.188;8.524;2022-09-06T05:33:53;98771.06;;;19.26;77.37
46007;BME280;31738;50.188;8.524;2022-09-06T05:36:19;98777.66;;;19.25;77.11
46007;BME280;31738;50.188;8.524;2022-09-06T05:38:47;98774.59;;;19.27;77.13
46007;BME280;31738;50.188;8.524;2022-09-06T05:41:13;98779.75;;;19.28;77.02
46007;BME280;31738;50.188;8.524;2022-09-06T05:43:38;98784.38;;;19.28;76.93
46007;BME280;31738;50.188;8.524;2022-09-06T05:46:04;98780.38;;;19.25;77.44
46007;BME280;31738;50.188;8.524;2022-09-06T05:48:29;98779.56;;;19.25;77.32
46007;BME280;31738;50.188;8.524;2022-09-06T05:51:05;98780.03;;;19.27;77.25
46007;BME280;31738;50.188;8.524;2022-09-06T05:53:37;98786.59;;;19.26;77.42
46007;BME280;31738;50.188;8.524;2022-09-06T05:56:03;98785.47;;;19.27;77.73
46007;BME280;31738;50.188;8.524;2022-09-06T05:58:29;98795.25;;;19.28;77.92
46007;BME280;31738;50.188;8.524;2022-09-06T06:03:32;98787.56;;;19.30;78.29
46007;BME280;31738;50.188;8.524;2022-09-06T06:05:57;98781.47;;;19.33;78.35
46007;BME280;31738;50.188;8.524;2022-09-06T06:08:23;98791.69;;;19.36;77.92
46007;BME280;31738;50.188;8.524;2022-09-06T06:10:48;98790.72;;;19.40;77.91
46007;BME280;31738;50.188;8.524;2022-09-06T06:13:14;98804.44;;;19.44;77.87
46007;BME280;31738;50.188;8.524;2022-09-06T06:15:39;98806.97;;;19.49;77.47
46007;BME280;31738;50.188;8.524;2022-09-06T06:18:05;98802.47;;;19.53;77.34
46007;BME280;31738;50.188;8.524;2022-09-06T06:20:30;98808.03;;;19.56;77.35
46007;BME280;31738;50.188;8.524;2022-09-06T06:22:55;98806.59;;;19.59;76.94
46007;BME280;31738;50.188;8.524;2022-09-06T06:25:21;98818.41;;;19.63;76.46
46007;BME280;31738;50.188;8.524;2022-09-06T06:27:51;98819.81;;;19.69;75.47
46007;BME280;31738;50.188;8.524;2022-09-06T06:30:17;98829.72;;;19.73;74.32
46007;BME280;31738;50.188;8.524;2022-09-06T06:32:42;98835.56;;;19.84;72.70
46007;BME280;31738;50.188;8.524;2022-09-06T06:35:08;98846.06;;;19.94;71.75
46007;BME280;31738;50.188;8.524;2022-09-06T06:37:34;98857.22;;;20.01;71.75
46007;BME280;31738;50.188;8.524;2022-09-06T06:40:00;98853.06;;;20.03;71.39
46007;BME280;31738;50.188;8.524;2022-09-06T06:42:25;98872.22;;;20.07;70.95
46007;BME280;31738;50.188;8.524;2022-09-06T06:44:51;98863.06;;;20.11;71.74
46007;BME280;31738;50.188;8.524;2022-09-06T06:47:18;98872.53;;;20.14;71.63
46007;BME280;31738;50.188;8.524;2022-09-06T06:49:44;98873.31;;;20.14;71.80
46007;BME280;31738;50.188;8.524;2022-09-06T06:52:09;98875.72;;;20.16;71.99
46007;BME280;31738;50.188;8.524;2022-09-06T06:54:34;98875.84;;;20.19;71.58
46007;BME280;31738;50.188;8.524;2022-09-06T06:57:02;98873.72;;;20.25;71.32
46007;BME280;31738;50.188;8.524;2022-09-06T06:59:29;98870.34;;;20.28;70.97
46007;BME280;31738;50.188;8.524;2022-09-06T07:01:55;98869.69;;;20.31;70.35
46007;BME280;31738;50.188;8.524;2022-09-06T07:04:20;98874.91;;;20.36;70.05
46007;BME280;31738;50.188;8.524;2022-09-06T07:06:51;98885.97;;;20.40;69.73
46007;BME280;31738;50.188;8.524;2022-09-06T07:09:18;98890.06;;;20.46;70.13
46007;BME280;31738;50.188;8.524;2022-09-06T07:11:44;98889.41;;;20.49;69.44
46007;BME280;31738;50.188;8.524;2022-09-06T07:14:09;98892.75;;;20.54;69.44
46007;BME280;31738;50.188;8.524;2022-09-06T07:16:35;98893.31;;;20.60;68.74
46007;BME280;31738;50.188;8.524;2022-09-06T07:19:00;98909.47;;;20.65;68.38
46007;BME280;31738;50.188;8.524;2022-09-06T07:21:26;98906.19;;;20.71;67.45
46007;BME280;31738;50.188;8.524;2022-09-06T07:23:52;98911.56;;;20.80;67.73
46007;BME280;31738;50.188;8.524;2022-09-06T07:26:20;98911.03;;;20.86;67.01
46007;BME280;31738;50.188;8.524;2022-09-06T07:28:46;98918.97;;;20.91;66.83
46007;BME280;31738;50.188;8.524;2022-09-06T07:34:09;98929.75;;;21.08;66.22
46007;BME280;31738;50.188;8.524;2022-09-06T07:36:41;98930.13;;;21.19;65.98
46007;BME280;31738;50.188;8.524;2022-09-06T07:39:11;98935.50;;;21.27;66.04
46007;BME280;31738;50.188;8.524;2022-09-06T07:41:57;98935.16;;;21.29;65.82
46007;BME280;31738;50.188;8.524;2022-09-06T07:44:26;98943.44;;;21.32;65.39
46007;BME280;31738;50.188;8.524;2022-09-06T07:46:57;98953.47;;;21.40;65.46
46007;BME280;31738;50.188;8.524;2022-09-06T07:49:40;98947.59;;;21.50;64.99
46007;BME280;31738;50.188;8.524;2022-09-06T07:52:08;98951.56;;;21.53;65.01
46007;BME280;31738;50.188;8.524;2022-09-06T07:54:41;98952.59;;;21.60;65.38
46007;BME280;31738;50.188;8.524;2022-09-06T07:57:10;98953.41;;;21.73;64.42
46007;BME280;31738;50.188;8.524;2022-09-06T07:59:41;98947.97;;;21.85;64.27
46007;BME280;31738;50.188;8.524;2022-09-06T08:02:13;98944.88;;;21.98;64.04
46007;BME280;31738;50.188;8.524;2022-09-06T08:04:46;98958.53;;;22.11;62.80
46007;BME280;31738;50.188;8.524;2022-09-06T08:07:21;98963.78;;;22.16;63.47
46007;BME280;31738;50.188;8.524;2022-09-06T08:09:49;98954.88;;;22.19;63.12
46007;BME280;31738;50.188;8.524;2022-09-06T08:12:51;98963.22;;;22.22;62.83
46007;BME280;31738;50.188;8.524;2022-09-06T08:15:25;98965.81;;;22.31;62.22
46007;BME280;31738;50.188;8.524;2022-09-06T08:18:00;98966.81;;;22.38;61.46
46007;BME280;31738;50.188;8.524;2022-09-06T08:20:28;98967.84;;;22.46;61.41
46007;BME280;31738;50.188;8.524;2022-09-06T08:23:08;98969.88;;;22.49;61.33
46007;BME280;31738;50.188;8.524;2022-09-06T08:25:37;98973.66;;;22.56;60.85
46007;BME280;31738;50.188;8.524;2022-09-06T08:28:10;98963.38;;;22.65;60.78
46007;BME280;31738;50.188;8.524;2022-09-06T08:30:42;98980.09;;;22.76;60.65
46007;BME280;31738;50.188;8.524;2022-09-06T08:33:20;98978.00;;;22.85;61.95
46007;BME280;31738;50.188;8.524;2022-09-06T08:36:01;98984.13;;;22.94;61.58
46007;BME280;31738;50.188;8.524;2022-09-06T08:38:37;98969.50;;;23.02;61.51
46007;BME280;31738;50.188;8.524;2022-09-06T08:41:24;98966.59;;;23.10;61.81
46007;BME280;31738;50.188;8.524;2022-09-06T08:44:02;98972.81;;;23.23;61.82
46007;BME280;31738;50.188;8.524;2022-09-06T08:49:41;98963.59;;;23.43;61.02
46007;BME280;31738;50.188;8.524;2022-09-06T08:53:16;98964.47;;;23.47;61.33
46007;BME280;31738;50.188;8.524;2022-09-06T08:55:37;98965.56;;;23.58;60.92
46007;BME280;31738;50.188;8.524;2022-09-06T09:01:07;98961.75;;;23.78;60.58
46007;BME280;31738;50.188;8.524;2022-09-06T09:03:42;98960.94;;;23.93;60.10
46007;BME280;31738;50.188;8.524;2022-09-06T09:06:16;98962.94;;;24.08;60.04
46007;BME280;31738;50.188;8.524;2022-09-06T09:09:04;98956.53;;;24.20;59.57
46007;BME280;31738;50.188;8.524;2022-09-06T09:11:33;98956.28;;;24.09;59.97
46007;BME280;31738;50.188;8.524;2022-09-06T09:14:29;98955.31;;;24.17;59.97
46007;BME280;31738;50.188;8.524;2022-09-06T09:17:09;98954.91;;;24.34;59.83
46007;BME280;31738;50.188;8.524;2022-09-06T09:19:40;98952.03;;;24.46;59.51
46007;BME280;31738;50.188;8.524;2022-09-06T09:22:12;98956.31;;;24.63;58.48
46007;BME280;31738;50.188;8.524;2022-09-06T09:24:58;98962.03;;;24.73;58.51
46007;BME280;31738;50.188;8.524;2022-09-06T09:27:26;98948.75;;;24.75;58.81
46007;BME280;31738;50.188;8.524;2022-09-06T09:30:08;98951.34;;;24.87;57.99
46007;BME280;31738;50.188;8.524;2022-09-06T09:32:42;98952.00;;;25.00;57.99
46007;BME280;31738;50.188;8.524;2022-09-06T09:35:36;98951.19;;;25.18;57.02
46007;BME280;31738;50.188;8.524;2022-09-06T09:38:11;98952.97;;;25.30;56.50
46007;BME280;31738;50.188;8.524;2022-09-06T09:41:03;98955.09;;;25.37;56.20
46007;BME280;31738;50.188;8.524;2022-09-06T09:46:47;98949.41;;;25.49;55.99
46007;BME280;31738;50.188;8.524;2022-09-06T09:55:09;98938.56;;;25.82;55.31
46007;BME280;31738;50.188;8.524;2022-09-06T09:57:55;98943.41;;;25.88;54.83
46007;BME280;31738;50.188;8.524;2022-09-06T10:00:44;98951.16;;;26.05;53.91
46007;BME280;31738;50.188;8.524;2022-09-06T10:03:29;98941.94;;;26.20;53.70
46007;BME280;31738;50.188;8.524;2022-09-06T10:06:00;98951.59;;;26.33;53.49
46007;BME280;31738;50.188;8.524;2022-09-06T10:08:58;98943.78;;;26.39;53.54
46007;BME280;31738;50.188;8.524;2022-09-06T10:12:02;98951.72;;;26.44;53.38
46007;BME280;31738;50.188;8.524;2022-09-06T10:14:57;98947.91;;;26.52;52.48
46007;BME280;31738;50.188;8.524;2022-09-06T10:17:51;98948.97;;;26.70;51.76
46007;BME280;31738;50.188;8.524;2022-09-06T10:20:33;98954.59;;;26.81;51.25
46007;BME280;31738;50.188;8.524;2022-09-06T10:26:17;98949.63;;;26.93;51.81
46007;BME280;31738;50.188;8.524;2022-09-06T10:28:54;98947.38;;;27.02;51.19
46007;BME280;31738;50.188;8.524;2022-09-06T10:31:38;98944.78;;;27.16;51.07
46007;BME280;31738;50.188;8.524;2022-09-06T10:34:40;98945.41;;;27.36;51.06
46007;BME280;31738;50.188;8.524;2022-09-06T10:37:49;98939.66;;;27.55;50.44
46007;BME280;31738;50.188;8.524;2022-09-06T10:40:18;98948.63;;;27.45;50.87
46007;BME280;31738;50.188;8.524;2022-09-06T10:42:56;98945.22;;;27.58;50.29
46007;BME280;31738;50.188;8.524;2022-09-06T10:45:57;98943.00;;;27.74;50.09
46007;BME280;31738;50.188;8.524;2022-09-06T10:48:41;98944.63;;;27.82;49.35
46007;BME280;31738;50.188;8.524;2022-09-06T10:54:38;98949.94;;;28.01;48.51
46007;BME280;31738;50.188;8.524;2022-09-06T10:57:39;98939.72;;;28.02;48.80
46007;BME280;31738;50.188;8.524;2022-09-06T11:00:26;98937.00;;;28.12;48.16
46007;BME280;31738;50.188;8.524;2022-09-06T11:06:10;98945.19;;;28.60;47.05
46007;BME280;31738;50.188;8.524;2022-09-06T11:11:49;98956.34;;;28.81;46.19
46007;BME280;31738;50.188;8.524;2022-09-06T11:14:24;98950.09;;;28.98;45.77
46007;BME280;31738;50.188;8.524;2022-09-06T11:17:06;98952.53;;;29.13;45.73
46007;BME280;31738;50.188;8.524;2022-09-06T11:29:01;98965.66;;;29.55;44.18
46007;BME280;31738;50.188;8.524;2022-09-06T11:31:52;98956.22;;;29.70;43.69
46007;BME280;31738;50.188;8.524;2022-09-06T11:34:30;98962.16;;;29.82;43.26
46007;BME280;31738;50.188;8.524;2022-09-06T11:37:08;98969.28;;;29.87;42.81
46007;BME280;31738;50.188;8.524;2022-09-06T11:40:05;98955.44;;;29.98;43.20
46007;BME280;31738;50.188;8.524;2022-09-06T11:43:17;98963.72;;;30.12;43.09
46007;BME280;31738;50.188;8.524;2022-09-06T11:49:07;98970.03;;;30.19;42.38
46007;BME280;31738;50.188;8.524;2022-09-06T11:57:07;98966.88;;;30.31;41.83
46007;BME280;31738;50.188;8.524;2022-09-06T11:59:59;98964.50;;;30.19;41.21
46007;BME280;31738;50.188;8.524;2022-09-06T12:02:38;98962.94;;;30.18;41.24
46007;BME280;31738;50.188;8.524;2022-09-06T12:10:56;98957.38;;;30.39;41.29
46007;BME280;31738;50.188;8.524;2022-09-06T12:20:05;98962.84;;;30.60;40.99
46007;BME280;31738;50.188;8.524;2022-09-06T12:27:59;98973.09;;;30.74;40.45
46007;BME280;31738;50.188;8.524;2022-09-06T12:30:53;98964.81;;;30.67;39.78
46007;BME280;31738;50.188;8.524;2022-09-06T12:33:26;98966.00;;;30.69;40.30
46007;BME280;31738;50.188;8.524;2022-09-06T12:36:29;98957.31;;;30.60;39.54
46007;BME280;31738;50.188;8.524;2022-09-06T12:39:12;98964.06;;;30.59;39.53
46007;BME280;31738;50.188;8.524;2022-09-06T12:42:04;98956.16;;;30.54;40.07
46007;BME280;31738;50.188;8.524;2022-09-06T12:44:41;98954.19;;;30.51;40.23
46007;BME280;31738;50.188;8.524;2022-09-06T12:47:30;98949.84;;;30.50;40.28
46007;BME280;31738;50.188;8.524;2022-09-06T12:50:21;98947.06;;;30.50;39.60
46007;BME280;31738;50.188;8.524;2022-09-06T12:52:51;98951.81;;;30.50;39.81
46007;BME280;31738;50.188;8.524;2022-09-06T12:55:27;98939.13;;;30.56;39.69
46007;BME280;31738;50.188;8.524;2022-09-06T12:58:00;98930.41;;;30.57;39.64
46007;BME280;31738;50.188;8.524;2022-09-06T13:00:37;98934.78;;;30.51;39.36
46007;BME280;31738;50.188;8.524;2022-09-06T13:06:04;98931.28;;;30.33;39.66
46007;BME280;31738;50.188;8.524;2022-09-06T13:08:52;98924.59;;;30.24;39.25
46007;BME280;31738;50.188;8.524;2022-09-06T13:11:37;98928.94;;;30.21;39.89
46007;BME280;31738;50.188;8.524;2022-09-06T13:14:26;98930.50;;;30.22;39.60
46007;BME280;31738;50.188;8.524;2022-09-06T13:17:03;98924.19;;;30.25;39.72
46007;BME280;31738;50.188;8.524;2022-09-06T13:19:39;98916.69;;;30.22;39.45
46007;BME280;31738;50.188;8.524;2022-09-06T13:22:08;98913.09;;;30.25;39.12
46007;BME280;31738;50.188;8.524;2022-09-06T13:24:46;98907.16;;;30.30;39.65
46007;BME280;31738;50.188;8.524;2022-09-06T13:27:38;98915.06;;;30.28;39.43
46007;BME280;31738;50.188;8.524;2022-09-06T13:30:30;98909.16;;;30.23;39.43
46007;BME280;31738;50.188;8.524;2022-09-06T13:33:22;98913.91;;;30.22;38.99
46007;BME280;31738;50.188;8.524;2022-09-06T13:36:17;98907.16;;;30.16;39.04
46007;BME280;31738;50.188;8.524;2022-09-06T13:38:48;98913.91;;;30.08;39.42
46007;BME280;31738;50.188;8.524;2022-09-06T13:43:55;98905.22;;;29.71;40.06
46007;BME280;31738;50.188;8.524;2022-09-06T13:46:21;98900.91;;;29.87;39.03
46007;BME280;31738;50.188;8.524;2022-09-06T13:48:47;98895.75;;;29.97;39.18
46007;BME280;31738;50.188;8.524;2022-09-06T13:51:12;98900.84;;;30.05;39.37
46007;BME280;31738;50.188;8.524;2022-09-06T13:53:37;98903.63;;;30.05;39.06
46007;BME280;31738;50.188;8.524;2022-09-06T13:56:03;98900.47;;;30.00;38.66
46007;BME280;31738;50.188;8.524;2022-09-06T13:58:33;98897.72;;;29.96;38.95
46007;BME280;31738;50.188;8.524;2022-09-06T14:00:59;98890.22;;;29.93;38.50
46007;BME280;31738;50.188;8.524;2022-09-06T14:03:30;98898.91;;;29.95;37.96
46007;BME280;31738;50.188;8.524;2022-09-06T14:05:57;98893.38;;;29.95;38.41
46007;BME280;31738;50.188;8.524;2022-09-06T14:08:25;98896.91;;;29.99;37.94
46007;BME280;31738;50.188;8.524;2022-09-06T14:10:51;98894.16;;;30.03;38.25
46007;BME280;31738;50.188;8.524;2022-09-06T14:13:17;98892.56;;;30.05;38.10
46007;BME280;31738;50.188;8.524;2022-09-06T14:15:44;98890.59;;;30.09;38.36
46007;BME280;31738;50.188;8.524;2022-09-06T14:18:10;98893.34;;;30.09;37.97
46007;BME280;31738;50.188;8.524;2022-09-06T14:20:35;98890.16;;;30.14;38.51
46007;BME280;31738;50.188;8.524;2022-09-06T14:23:01;98890.19;;;30.21;38.11
46007;BME280;31738;50.188;8.524;2022-09-06T14:25:26;98892.94;;;30.28;38.12
46007;BME280;31738;50.188;8.524;2022-09-06T14:27:53;98906.78;;;30.35;38.00
46007;BME280;31738;50.188;8.524;2022-09-06T14:30:18;98888.56;;;30.38;37.66
46007;BME280;31738;50.188;8.524;2022-09-06T14:32:44;98890.13;;;30.39;37.43
46007;BME280;31738;50.188;8.524;2022-09-06T14:35:10;98886.97;;;30.37;37.97
46007;BME280;31738;50.188;8.524;2022-09-06T14:37:36;98886.59;;;30.38;37.97
46007;BME280;31738;50.188;8.524;2022-09-06T14:40:02;98869.53;;;30.43;37.83
46007;BME280;31738;50.188;8.524;2022-09-06T14:42:29;98872.69;;;30.45;37.49
46007;BME280;31738;50.188;8.524;2022-09-06T14:44:54;98868.38;;;30.44;37.05
46007;BME280;31738;50.188;8.524;2022-09-06T14:47:20;98864.03;;;30.36;37.70
46007;BME280;31738;50.188;8.524;2022-09-06T14:49:46;98859.28;;;30.37;37.38
46007;BME280;31738;50.188;8.524;2022-09-06T14:52:11;98855.31;;;30.41;38.17
46007;BME280;31738;50.188;8.524;2022-09-06T14:54:37;98856.09;;;30.45;37.53
46007;BME280;31738;50.188;8.524;2022-09-06T14:57:02;98854.50;;;30.44;37.58
46007;BME280;31738;50.188;8.524;2022-09-06T14:59:28;98850.59;;;30.38;38.25
46007;BME280;31738;50.188;8.524;2022-09-06T15:01:53;98844.28;;;30.27;37.76